Time;durP1;ratioP1;P1;durP2;ratioP2;P2;SDS_P1;SDS_P2;PMS_P1;PMS_P2;Temp;Humidity;BMP_temperature;BMP_pressure;BME280_temperature;BME280_humidity;BME280_pressure;Samples;Min_cycle;Max_cycle;Signal;HPM_P1;HPM_P2
2023/10/08 00:00:46;;;;;;;0.40;0.40;;;13.50;99.90;;;;;;5078318;28;20075;-64
2023/10/08 00:03:13;;;;;;;0.32;0.32;;;13.50;99.90;;;;;;5113626;28;20047;-64
2023/10/08 00:05:39;;;;;;;0.35;0.30;;;13.10;99.90;;;;;;5094860;28;20173;-65
2023/10/08 00:08:06;;;;;;;0.50;0.50;;;13.50;99.90;;;;;;5113383;28;20047;-64
2023/10/08 00:10:37;;;;;;;0.20;0.20;;;13.50;99.90;;;;;;5095346;28;20132;-64
2023/10/08 00:13:07;;;;;;;0.40;0.40;;;13.40;99.90;;;;;;5095314;28;20035;-64
2023/10/08 00:15:33;;;;;;;0.50;0.40;;;13.50;99.90;;;;;;5078455;28;20042;-64
2023/10/08 00:18:01;;;;;;;0.63;0.63;;;13.50;99.90;;;;;;5113567;28;20079;-66
2023/10/08 00:20:35;;;;;;;0.32;0.32;;;14.00;99.90;;;;;;5113428;28;20419;-66
2023/10/08 00:23:02;;;;;;;0.32;0.32;;;13.50;99.90;;;;;;5095205;28;20044;-66
2023/10/08 00:25:30;;;;;;;0.50;0.50;;;13.10;99.90;;;;;;5113311;28;20035;-66
2023/10/08 00:27:56;;;;;;;0.30;0.30;;;13.70;99.90;;;;;;5117181;28;20411;-66
2023/10/08 00:30:21;;;;;;;0.30;0.30;;;14.00;99.90;;;;;;5098943;28;20042;-66
2023/10/08 00:32:47;;;;;;;0.52;0.50;;;13.50;99.90;;;;;;5098930;28;20039;-66
2023/10/08 00:35:13;;;;;;;0.30;0.30;;;13.50;99.90;;;;;;5117474;28;20053;-66
2023/10/08 00:37:42;;;;;;;0.30;0.30;;;13.50;99.90;;;;;;5117408;28;20048;-66
2023/10/08 00:40:13;;;;;;;0.40;0.40;;;13.50;99.90;;;;;;5099031;28;20509;-66
2023/10/08 00:42:45;;;;;;;0.40;0.40;;;13.50;99.90;;;;;;5081992;28;20046;-66
2023/10/08 00:45:14;;;;;;;0.30;0.30;;;13.90;99.90;;;;;;5098683;28;20040;-66
2023/10/08 00:47:43;;;;;;;0.40;0.40;;;13.10;99.90;;;;;;5117101;28;20093;-66
2023/10/08 00:50:20;;;;;;;0.40;0.40;;;13.40;99.90;;;;;;5098498;28;20058;-66
2023/10/08 00:53:00;;;;;;;0.50;0.50;;;13.10;99.90;;;;;;5098505;28;20039;-66
2023/10/08 00:55:29;;;;;;;0.40;0.40;;;13.30;99.90;;;;;;5117051;28;20079;-66
2023/10/08 00:57:58;;;;;;;0.43;0.30;;;13.30;99.90;;;;;;5116655;28;20484;-66
2023/10/08 01:00:32;;;;;;;0.30;0.30;;;13.70;99.90;;;;;;5081540;28;20031;-66
2023/10/08 01:03:02;;;;;;;0.28;0.28;;;13.40;99.90;;;;;;5098361;28;20035;-66
2023/10/08 01:05:46;;;;;;;0.30;0.30;;;13.30;99.90;;;;;;5116332;28;20044;-66
2023/10/08 01:08:19;;;;;;;0.30;0.30;;;13.30;99.90;;;;;;5116527;28;20074;-66
2023/10/08 01:10:47;;;;;;;0.80;0.40;;;13.20;99.90;;;;;;5116388;28;20040;-66
2023/10/08 01:13:20;;;;;;;0.38;0.30;;;13.30;99.90;;;;;;5116675;28;20031;-66
2023/10/08 01:15:50;;;;;;;0.52;0.52;;;13.30;99.90;;;;;;5116644;28;20055;-66
2023/10/08 01:18:17;;;;;;;0.32;0.32;;;13.30;99.90;;;;;;5116710;28;20114;-66
2023/10/08 01:20:51;;;;;;;0.40;0.40;;;13.30;99.90;;;;;;5081143;28;20047;-67
2023/10/08 01:23:20;;;;;;;0.55;0.52;;;13.30;99.90;;;;;;5097954;28;20040;-66
2023/10/08 01:25:57;;;;;;;0.40;0.40;;;13.30;99.90;;;;;;5097750;28;20055;-66
2023/10/08 01:28:26;;;;;;;0.40;0.40;;;13.50;99.90;;;;;;5116146;28;20046;-66
2023/10/08 01:30:57;;;;;;;0.80;0.80;;;13.30;99.90;;;;;;5116332;28;20399;-66
2023/10/08 01:33:27;;;;;;;;;;;13.20;99.90;;;;;;5116677;28;20031;-66
2023/10/08 01:35:53;;;;;;;0.55;0.55;;;13.30;99.90;;;;;;5116204;28;19919;-66
2023/10/08 01:38:23;;;;;;;0.40;0.40;;;13.30;99.90;;;;;;5115588;28;20031;-66
2023/10/08 01:40:52;;;;;;;1.00;0.70;;;13.10;99.90;;;;;;5097844;28;20050;-66
2023/10/08 01:43:19;;;;;;;0.70;0.70;;;13.60;99.90;;;;;;5116158;28;20074;-66
2023/10/08 01:45:50;;;;;;;0.65;0.60;;;13.30;99.90;;;;;;5115667;28;20044;-66
2023/10/08 01:48:37;;;;;;;;;;;13.30;99.90;;;;;;5116507;28;20039;-64
2023/10/08 01:51:04;;;;;;;0.50;0.50;;;13.30;99.90;;;;;;5114820;28;19915;-64
2023/10/08 01:53:31;;;;;;;0.45;0.45;;;13.90;99.90;;;;;;5115937;28;20444;-64
2023/10/08 01:55:58;;;;;;;0.38;0.38;;;13.90;99.90;;;;;;5115553;28;20060;-65
2023/10/08 01:58:23;;;;;;;0.45;0.45;;;13.20;99.90;;;;;;5097306;28;20123;-64
2023/10/08 02:00:49;;;;;;;0.55;0.50;;;13.20;99.90;;;;;;5115476;28;20469;-64
2023/10/08 02:03:17;;;;;;;0.50;0.43;;;13.20;99.90;;;;;;5115796;28;20052;-65
2023/10/08 02:05:44;;;;;;;0.45;0.45;;;13.50;99.90;;;;;;5115178;28;20056;-64
2023/10/08 02:08:16;;;;;;;0.40;0.40;;;13.10;99.90;;;;;;5097192;28;20044;-64
2023/10/08 02:10:44;;;;;;;0.60;0.60;;;13.10;99.90;;;;;;5080456;28;20079;-65
2023/10/08 02:13:13;;;;;;;0.50;0.50;;;12.90;99.90;;;;;;5097031;28;20075;-64
2023/10/08 02:16:05;;;;;;;0.85;0.60;;;13.10;99.90;;;;;;5096939;28;20043;-64
2023/10/08 02:18:30;;;;;;;0.50;0.50;;;13.10;99.90;;;;;;5112085;28;20080;-64
2023/10/08 02:20:56;;;;;;;0.45;0.43;;;13.10;99.90;;;;;;5115430;28;20152;-64
2023/10/08 02:23:21;;;;;;;0.50;0.50;;;13.10;99.90;;;;;;5096806;28;20050;-64
2023/10/08 02:25:47;;;;;;;0.40;0.40;;;12.80;99.90;;;;;;5096686;28;20079;-64
2023/10/08 02:28:15;;;;;;;0.52;0.52;;;13.00;99.90;;;;;;5115394;28;20062;-66
2023/10/08 02:30:42;;;;;;;0.40;0.40;;;13.00;99.90;;;;;;5114882;28;20380;-66
2023/10/08 02:33:13;;;;;;;0.60;0.40;;;13.20;99.90;;;;;;5097009;28;20043;-66
2023/10/08 02:35:43;;;;;;;0.30;0.30;;;13.00;99.90;;;;;;5096826;28;20046;-66
2023/10/08 02:38:16;;;;;;;0.40;0.40;;;12.70;99.90;;;;;;5097002;28;20479;-66
2023/10/08 02:40:47;;;;;;;0.47;0.38;;;13.40;99.90;;;;;;5096602;28;20081;-66
2023/10/08 02:43:17;;;;;;;0.40;0.40;;;12.90;99.90;;;;;;5114687;28;20035;-66
2023/10/08 02:45:50;;;;;;;0.30;0.30;;;12.90;99.90;;;;;;5114833;28;20040;-66
2023/10/08 02:48:16;;;;;;;0.40;0.40;;;13.00;99.90;;;;;;5096056;28;20289;-66
2023/10/08 02:50:45;;;;;;;0.70;0.50;;;13.00;99.90;;;;;;5113970;28;20421;-66
2023/10/08 02:53:11;;;;;;;0.63;0.40;;;13.00;99.90;;;;;;5096238;28;20054;-66
2023/10/08 02:55:44;;;;;;;0.50;0.50;;;12.90;99.90;;;;;;5079306;28;20097;-66
2023/10/08 02:58:18;;;;;;;0.30;0.30;;;12.90;99.90;;;;;;5114683;28;20475;-66
2023/10/08 03:00:47;;;;;;;1.08;0.60;;;12.90;99.90;;;;;;5114584;28;20031;-66
2023/10/08 03:03:16;;;;;;;0.50;0.50;;;12.70;99.90;;;;;;5095963;28;20046;-66
2023/10/08 03:05:46;;;;;;;0.63;0.60;;;13.00;99.90;;;;;;5114017;28;20044;-66
2023/10/08 03:08:22;;;;;;;0.40;0.40;;;12.80;99.90;;;;;;5114525;28;20440;-66
2023/10/08 03:10:55;;;;;;;0.50;0.50;;;13.00;99.90;;;;;;5114169;28;20043;-66
2023/10/08 03:13:26;;;;;;;0.52;0.50;;;13.00;99.90;;;;;;5114363;28;20032;-66
2023/10/08 03:18:35;;;;;;;0.30;0.30;;;13.00;99.90;;;;;;5114244;28;20044;-66
2023/10/08 03:21:04;;;;;;;0.40;0.40;;;13.20;99.90;;;;;;5113856;28;20044;-66
2023/10/08 03:23:36;;;;;;;0.50;0.50;;;13.00;99.90;;;;;;5114135;28;20093;-66
2023/10/08 03:28:34;;;;;;;0.52;0.52;;;13.10;99.90;;;;;;5114124;28;20495;-66
2023/10/08 03:31:13;;;;;;;0.50;0.50;;;13.00;99.90;;;;;;5113690;28;20118;-66
2023/10/08 03:33:39;;;;;;;0.35;0.30;;;13.00;99.90;;;;;;5095519;28;20038;-66
2023/10/08 03:36:22;;;;;;;0.60;0.50;;;13.20;99.90;;;;;;5113992;28;20039;-66
2023/10/08 03:38:51;;;;;;;2.05;0.70;;;13.10;99.90;;;;;;5095606;28;20461;-66
2023/10/08 03:41:30;;;;;;;0.50;0.50;;;13.30;99.90;;;;;;5113740;28;20050;-66
2023/10/08 03:44:05;;;;;;;0.40;0.40;;;13.00;99.90;;;;;;5113571;28;20063;-66
2023/10/08 03:46:39;;;;;;;0.30;0.30;;;12.90;99.90;;;;;;5113793;28;20380;-66
2023/10/08 03:51:52;;;;;;;0.45;0.43;;;13.10;99.90;;;;;;5113760;28;20067;-66
2023/10/08 03:54:48;;;;;;;0.40;0.40;;;13.50;99.90;;;;;;5095540;28;20542;-66
2023/10/08 03:57:18;;;;;;;1.85;0.52;;;12.90;99.90;;;;;;5112697;28;20035;-66
2023/10/08 03:59:48;;;;;;;0.73;0.40;;;13.00;99.90;;;;;;5113524;28;20411;-66
2023/10/08 04:02:14;;;;;;;0.30;0.30;;;13.00;99.90;;;;;;5113668;28;20115;-66
2023/10/08 04:04:56;;;;;;;0.50;0.50;;;13.60;99.90;;;;;;5113163;28;20060;-66
2023/10/08 04:07:28;;;;;;;0.30;0.30;;;12.70;99.90;;;;;;5113277;28;20040;-66
2023/10/08 04:12:43;;;;;;;0.50;0.40;;;13.10;99.90;;;;;;5113201;28;20043;-66
2023/10/08 04:15:12;;;;;;;0.98;0.50;;;13.10;99.90;;;;;;5095054;28;20044;-66
2023/10/08 04:17:44;;;;;;;0.45;0.45;;;13.00;99.90;;;;;;5113451;28;20399;-66
2023/10/08 04:20:33;;;;;;;0.50;0.50;;;13.00;99.90;;;;;;5094966;28;20040;-66
2023/10/08 04:23:00;;;;;;;0.43;0.43;;;13.10;99.90;;;;;;5113358;28;20071;-66
2023/10/08 04:25:27;;;;;;;0.60;0.50;;;12.80;99.90;;;;;;5113379;28;20051;-66
2023/10/08 04:27:54;;;;;;;0.50;0.40;;;13.00;99.90;;;;;;5113345;28;20028;-66
2023/10/08 04:30:22;;;;;;;3.67;0.90;;;13.00;99.90;;;;;;5094965;28;20035;-66
2023/10/08 04:32:52;;;;;;;0.40;0.40;;;13.00;99.90;;;;;;5113293;28;20376;-66
2023/10/08 04:35:19;;;;;;;0.43;0.43;;;13.00;99.90;;;;;;5113045;28;20044;-66
2023/10/08 04:37:51;;;;;;;0.60;0.57;;;13.00;99.90;;;;;;5113293;28;20044;-66
2023/10/08 04:40:17;;;;;;;0.50;0.50;;;13.10;99.90;;;;;;5112998;28;20046;-66
2023/10/08 04:42:45;;;;;;;0.40;0.40;;;13.00;99.90;;;;;;5094950;28;20035;-66
2023/10/08 04:45:14;;;;;;;0.65;0.65;;;13.00;99.90;;;;;;5113163;28;20072;-66
2023/10/08 04:47:42;;;;;;;0.75;0.68;;;13.00;99.90;;;;;;5113172;28;20036;-66
2023/10/08 04:50:15;;;;;;;0.43;0.43;;;13.00;99.90;;;;;;5077790;28;20042;-66
2023/10/08 04:52:46;;;;;;;0.68;0.50;;;13.00;99.90;;;;;;5113165;28;20096;-66
2023/10/08 04:55:19;;;;;;;0.57;0.57;;;13.00;99.90;;;;;;5112891;28;20047;-66
2023/10/08 04:57:45;;;;;;;0.70;0.70;;;13.00;99.90;;;;;;5094924;28;20495;-66
2023/10/08 05:00:15;;;;;;;0.50;0.50;;;12.70;99.90;;;;;;5094565;28;20058;-66
2023/10/08 05:02:50;;;;;;;0.50;0.50;;;13.00;99.90;;;;;;5112984;28;20055;-66
2023/10/08 05:12:37;;;;;;;0.50;0.50;;;12.90;99.90;;;;;;5096120;28;20047;-64
2023/10/08 05:20:19;;;;;;;0.60;0.60;;;13.00;99.90;;;;;;5116575;28;20163;-65
2023/10/08 05:22:47;;;;;;;0.50;0.50;;;13.00;99.90;;;;;;5081078;28;20051;-64
2023/10/08 05:30:16;;;;;;;0.40;0.40;;;12.80;99.90;;;;;;5098139;28;20130;-64
2023/10/08 05:33:06;;;;;;;1.48;0.70;;;12.90;99.90;;;;;;5116038;28;20092;-64
2023/10/08 05:38:23;;;;;;;0.30;0.30;;;12.90;99.90;;;;;;5116259;28;20130;-64
2023/10/08 05:46:39;;;;;;;0.73;0.63;;;12.80;99.90;;;;;;5116121;28;20051;-64
2023/10/08 05:49:03;;;;;;;0.73;0.60;;;13.10;99.90;;;;;;5097188;28;20044;-64
2023/10/08 05:52:13;;;;;;;0.88;0.70;;;12.90;99.90;;;;;;5115993;28;20040;-64
2023/10/08 06:00:29;;;;;;;0.75;0.40;;;13.30;99.90;;;;;;5115860;28;20375;-64
2023/10/08 06:13:10;;;;;;;1.95;0.82;;;13.00;99.90;;;;;;5115555;28;20402;-66
2023/10/08 06:16:04;;;;;;;0.65;0.55;;;13.00;99.90;;;;;;5096904;28;20054;-66
2023/10/08 06:18:31;;;;;;;1.08;0.70;;;12.90;99.90;;;;;;5097420;28;20394;-64
2023/10/08 06:21:08;;;;;;;1.52;0.70;;;12.90;99.90;;;;;;5115067;28;20092;-64
2023/10/08 06:23:39;;;;;;;0.70;0.70;;;13.00;99.90;;;;;;5115284;28;20042;-64
2023/10/08 06:26:26;;;;;;;;;;;13.20;99.90;;;;;;5080342;28;20047;-64
2023/10/08 06:28:57;;;;;;;0.75;0.73;;;13.00;99.90;;;;;;5114558;28;19916;-66
2023/10/08 06:31:24;;;;;;;0.80;0.80;;;13.10;99.90;;;;;;5115247;28;20048;-66
2023/10/08 06:33:50;;;;;;;0.70;0.70;;;12.90;99.90;;;;;;5096610;28;20048;-66
2023/10/08 06:36:16;;;;;;;2.55;1.20;;;13.00;99.90;;;;;;5096657;28;20544;-66
2023/10/08 06:38:43;;;;;;;1.08;0.60;;;13.10;99.90;;;;;;5114686;28;20475;-66
2023/10/08 06:43:39;;;;;;;1.20;0.80;;;13.10;99.90;;;;;;5114658;28;20083;-66
2023/10/08 06:46:12;;;;;;;1.95;0.88;;;13.10;99.90;;;;;;5114836;28;20457;-66
2023/10/08 06:48:42;;;;;;;0.50;0.50;;;13.10;99.90;;;;;;5114676;28;20044;-65
2023/10/08 06:51:12;;;;;;;0.50;0.50;;;12.90;99.90;;;;;;5096134;28;20092;-66
2023/10/08 06:53:41;;;;;;;0.68;0.68;;;13.30;99.90;;;;;;5114387;28;20633;-66
2023/10/08 06:56:09;;;;;;;1.02;0.60;;;13.30;99.90;;;;;;5114493;28;20036;-66
2023/10/08 06:58:35;;;;;;;0.70;0.70;;;13.30;99.90;;;;;;5114137;28;20115;-66
2023/10/08 07:01:04;;;;;;;0.85;0.68;;;13.30;99.90;;;;;;5095980;28;20075;-66
2023/10/08 07:03:33;;;;;;;1.30;0.63;;;13.30;99.90;;;;;;5095895;28;20437;-66
2023/10/08 07:06:02;;;;;;;0.52;0.52;;;13.40;99.90;;;;;;5113872;28;20104;-66
2023/10/08 07:08:33;;;;;;;0.95;0.47;;;13.10;99.90;;;;;;5095965;28;20036;-70
2023/10/08 07:11:06;;;;;;;0.38;0.38;;;13.50;99.90;;;;;;5095924;28;20036;-66
2023/10/08 07:13:33;;;;;;;0.50;0.50;;;13.30;99.90;;;;;;5114360;28;20435;-66
2023/10/08 07:16:00;;;;;;;1.98;0.80;;;13.40;99.90;;;;;;5114300;28;20394;-65
2023/10/08 07:18:25;;;;;;;0.40;0.40;;;13.20;99.90;;;;;;5078846;28;20047;-66
2023/10/08 07:20:56;;;;;;;1.13;0.77;;;13.30;99.90;;;;;;5095737;28;20111;-67
2023/10/08 07:23:34;;;;;;;0.73;0.73;;;14.30;99.90;;;;;;5113888;28;20059;-65
2023/10/08 07:26:12;;;;;;;0.57;0.40;;;13.70;99.90;;;;;;5095508;28;20039;-65
2023/10/08 07:28:41;;;;;;;3.17;1.00;;;13.60;99.90;;;;;;5114221;28;20031;-64
2023/10/08 07:31:16;;;;;;;1.58;0.70;;;13.80;99.90;;;;;;5114194;28;20036;-64
2023/10/08 07:33:43;;;;;;;1.02;0.60;;;13.90;99.90;;;;;;5114027;28;20395;-68
2023/10/08 07:36:14;;;;;;;0.60;0.47;;;14.00;99.90;;;;;;5095080;28;20052;-64
2023/10/08 07:38:43;;;;;;;0.77;0.50;;;14.00;99.90;;;;;;5113681;28;20039;-64
2023/10/08 07:41:14;;;;;;;1.98;0.85;;;14.10;99.90;;;;;;5113547;28;20395;-66
2023/10/08 07:43:41;;;;;;;;;;;14.00;99.90;;;;;;5095988;28;20463;-72
2023/10/08 07:46:07;;;;;;;0.55;0.30;;;14.00;99.90;;;;;;5112244;28;19924;-64
2023/10/08 07:48:33;;;;;;;0.88;0.70;;;14.00;99.90;;;;;;5113816;28;20501;-64
2023/10/08 07:50:58;;;;;;;1.73;0.68;;;14.10;99.90;;;;;;5113432;28;20441;-64
2023/10/08 07:53:25;;;;;;;0.65;0.35;;;14.10;99.90;;;;;;5095308;28;20035;-64
2023/10/08 07:55:51;;;;;;;1.13;0.60;;;14.10;99.90;;;;;;5113740;28;20066;-64
2023/10/08 07:58:18;;;;;;;0.98;0.63;;;14.00;99.90;;;;;;5095138;28;20134;-64
2023/10/08 08:00:56;;;;;;;1.92;0.90;;;14.10;99.90;;;;;;5113596;28;20036;-64
2023/10/08 08:03:22;;;;;;;0.60;0.45;;;14.10;99.90;;;;;;5113635;28;20085;-64
2023/10/08 08:05:49;;;;;;;1.08;0.55;;;14.10;99.90;;;;;;5113087;28;20052;-70
2023/10/08 08:08:17;;;;;;;1.38;0.77;;;14.20;99.90;;;;;;5095021;28;20131;-65
2023/10/08 08:10:44;;;;;;;0.52;0.40;;;14.20;99.90;;;;;;5113197;28;20035;-65
2023/10/08 08:13:10;;;;;;;2.83;0.75;;;14.00;99.90;;;;;;5078502;28;20067;-65
2023/10/08 08:15:41;;;;;;;0.50;0.50;;;14.20;99.90;;;;;;5113401;28;20040;-66
2023/10/08 08:18:07;;;;;;;1.65;0.90;;;14.20;99.90;;;;;;5095178;28;20040;-65
2023/10/08 08:20:38;;;;;;;1.60;0.50;;;14.20;99.90;;;;;;5095237;28;20488;-66
2023/10/08 08:23:07;;;;;;;0.93;0.60;;;14.20;99.90;;;;;;5095150;28;20048;-64
2023/10/08 08:26:05;;;;;;;0.93;0.75;;;14.20;99.90;;;;;;5094841;28;20088;-64
2023/10/08 08:28:31;;;;;;;0.50;0.45;;;14.10;99.90;;;;;;5112944;28;20031;-64
2023/10/08 08:31:04;;;;;;;1.85;0.68;;;14.20;99.90;;;;;;5113142;28;20395;-64
2023/10/08 08:36:17;;;;;;;1.00;0.63;;;14.20;99.90;;;;;;5112768;28;20040;-63
2023/10/08 08:38:44;;;;;;;1.60;0.80;;;14.30;99.90;;;;;;5112926;28;20088;-65
2023/10/08 08:41:12;;;;;;;0.75;0.50;;;14.40;99.90;;;;;;5113118;28;20082;-65
2023/10/08 08:43:43;;;;;;;0.77;0.43;;;14.50;99.90;;;;;;5094674;28;20086;-65
2023/10/08 08:46:12;;;;;;;0.65;0.43;;;14.50;99.90;;;;;;5112854;28;20051;-65
2023/10/08 08:48:40;;;;;;;1.58;1.00;;;14.40;99.90;;;;;;5098187;28;20036;-65
2023/10/08 08:51:09;;;;;;;1.30;0.77;;;14.90;99.90;;;;;;5117161;28;20080;-65
2023/10/08 08:53:39;;;;;;;0.90;0.65;;;14.50;99.90;;;;;;5117035;28;20051;-65
2023/10/08 08:56:12;;;;;;;0.87;0.70;;;14.60;99.90;;;;;;5116616;28;20039;-65
2023/10/08 08:58:38;;;;;;;1.42;0.82;;;14.70;99.90;;;;;;5116742;28;20044;-65
2023/10/08 09:01:09;;;;;;;1.30;0.73;;;14.70;99.90;;;;;;5116722;28;20045;-65
2023/10/08 09:03:35;;;;;;;0.75;0.63;;;14.80;99.90;;;;;;5116792;28;20563;-65
2023/10/08 09:06:01;;;;;;;0.80;0.47;;;14.80;99.90;;;;;;5080992;28;20060;-65
2023/10/08 09:08:34;;;;;;;0.60;0.60;;;15.10;99.90;;;;;;5098341;28;20195;-65
2023/10/08 09:11:08;;;;;;;0.88;0.82;;;14.90;99.90;;;;;;5098354;28;20047;-65
2023/10/08 09:13:34;;;;;;;1.13;0.50;;;15.00;99.90;;;;;;5116315;28;20103;-65
2023/10/08 09:16:11;;;;;;;2.08;1.05;;;15.20;99.90;;;;;;5097958;28;20047;-65
2023/10/08 09:18:36;;;;;;;1.45;0.95;;;15.10;99.90;;;;;;5116415;28;20093;-65
2023/10/08 09:21:10;;;;;;;0.60;0.60;;;15.10;99.90;;;;;;5097961;28;20579;-65
2023/10/08 09:23:43;;;;;;;2.17;0.88;;;15.20;99.90;;;;;;5116472;28;20048;-65
2023/10/08 09:26:14;;;;;;;0.77;0.60;;;15.20;99.90;;;;;;5116305;28;20046;-65
2023/10/08 09:28:49;;;;;;;;;;;15.30;99.90;;;;;;5116361;28;20172;-65
2023/10/08 09:31:17;;;;;;;0.80;0.73;;;15.30;99.90;;;;;;5115949;28;19923;-65
2023/10/08 09:33:52;;;;;;;0.82;0.73;;;15.30;99.90;;;;;;5116257;28;20043;-65
2023/10/08 09:36:19;;;;;;;0.70;0.43;;;15.30;99.90;;;;;;5115912;28;20046;-65
2023/10/08 09:38:48;;;;;;;0.80;0.43;;;15.30;99.90;;;;;;5116140;28;20039;-65
2023/10/08 09:41:14;;;;;;;1.52;0.90;;;15.40;99.90;;;;;;5116139;28;20047;-65
2023/10/08 09:43:41;;;;;;;2.28;0.93;;;15.40;99.90;;;;;;5115848;28;20035;-65
2023/10/08 09:46:18;;;;;;;0.95;0.60;;;15.40;99.90;;;;;;5097167;28;20075;-65
2023/10/08 09:48:54;;;;;;;1.20;0.90;;;15.30;99.90;;;;;;5097408;28;20055;-65
2023/10/08 09:51:20;;;;;;;0.65;0.60;;;15.40;99.90;;;;;;5080556;28;20035;-65
2023/10/08 09:54:10;;;;;;;1.42;0.70;;;15.40;99.90;;;;;;5080560;28;20040;-66
2023/10/08 09:56:36;;;;;;;1.58;0.77;;;15.40;99.90;;;;;;5097428;28;20237;-65
2023/10/08 09:59:03;;;;;;;1.83;0.73;;;15.90;99.90;;;;;;5115355;28;20048;-64
2023/10/08 10:01:32;;;;;;;1.92;0.70;;;15.40;99.90;;;;;;5115280;28;20039;-64
2023/10/08 10:03:59;;;;;;;1.48;0.70;;;15.30;99.90;;;;;;5096872;28;20050;-64
2023/10/08 10:06:28;;;;;;;0.80;0.60;;;15.50;99.90;;;;;;5115451;28;20472;-64
2023/10/08 10:08:57;;;;;;;2.08;0.82;;;15.60;99.90;;;;;;5097208;28;20156;-64
2023/10/08 10:11:27;;;;;;;2.28;0.90;;;15.60;99.90;;;;;;5096988;28;20047;-64
2023/10/08 10:14:00;;;;;;;1.45;0.60;;;15.60;99.90;;;;;;5096923;28;20085;-64
2023/10/08 10:16:26;;;;;;;1.40;0.80;;;15.60;99.60;;;;;;5115238;28;20462;-64
2023/10/08 10:18:59;;;;;;;0.88;0.60;;;15.70;99.90;;;;;;5096916;28;20118;-64
2023/10/08 10:21:32;;;;;;;0.73;0.70;;;15.70;99.50;;;;;;5115093;28;20127;-64
2023/10/08 10:23:59;;;;;;;1.00;0.50;;;15.70;99.90;;;;;;5079830;28;20453;-64
2023/10/08 10:26:35;;;;;;;0.82;0.50;;;15.70;98.60;;;;;;5115282;28;20088;-64
2023/10/08 10:29:10;;;;;;;1.05;0.52;;;15.80;96.90;;;;;;5097050;28;20036;-64
2023/10/08 10:31:44;;;;;;;0.82;0.82;;;16.60;96.60;;;;;;5096600;28;20074;-64
2023/10/08 10:34:12;;;;;;;0.88;0.70;;;15.90;94.00;;;;;;5096695;28;20377;-63
2023/10/08 10:36:39;;;;;;;1.42;0.85;;;15.90;92.80;;;;;;5096731;28;20040;-63
2023/10/08 10:39:16;;;;;;;1.35;0.82;;;15.90;90.40;;;;;;5096461;28;20403;-63
2023/10/08 10:41:46;;;;;;;0.60;0.60;;;15.90;85.20;;;;;;5114976;28;20039;-63
2023/10/08 10:44:15;;;;;;;1.92;1.05;;;16.00;90.30;;;;;;5114911;28;20330;-63
2023/10/08 10:46:51;;;;;;;2.63;0.70;;;16.00;84.20;;;;;;5113659;28;20391;-63
2023/10/08 10:49:31;;;;;;;1.90;0.45;;;16.10;90.40;;;;;;5096616;28;20039;-63
2023/10/08 10:51:57;;;;;;;1.35;0.82;;;16.20;85.10;;;;;;5096230;28;20058;-63
2023/10/08 10:54:25;;;;;;;0.77;0.50;;;16.30;90.50;;;;;;5114695;28;20032;-63
2023/10/08 10:57:16;;;;;;;1.00;0.70;;;16.30;77.60;;;;;;5096167;28;20130;-64
2023/10/08 10:59:52;;;;;;;1.13;0.70;;;16.30;74.10;;;;;;5096499;28;20057;-64
2023/10/08 11:02:30;;;;;;;0.60;0.52;;;16.20;38.80;;;;;;5114371;28;20040;-64
2023/10/08 11:05:07;;;;;;;0.80;0.57;;;17.50;67.30;;;;;;5095872;28;20060;-64
2023/10/08 11:07:33;;;;;;;0.70;0.45;;;16.40;1.00;;;;;;5114304;28;20369;-64
2023/10/08 11:10:00;;;;;;;1.55;1.05;;;16.30;1.00;;;;;;5113877;28;20032;-64
2023/10/08 11:12:42;;;;;;;1.58;0.82;;;16.30;1.00;;;;;;5114137;28;20035;-64
2023/10/08 11:15:15;;;;;;;0.70;0.47;;;16.40;93.70;;;;;;5114030;28;20084;-64
2023/10/08 11:17:41;;;;;;;1.55;0.77;;;16.50;99.90;;;;;;5096141;28;20093;-64
2023/10/08 11:20:24;;;;;;;0.80;0.63;;;16.50;1.00;;;;;;5078926;28;20047;-64
2023/10/08 11:22:51;;;;;;;0.90;0.73;;;16.80;1.00;;;;;;5113863;28;20079;-64
2023/10/08 11:25:27;;;;;;;2.05;0.60;;;16.80;1.00;;;;;;5095549;28;20426;-64
2023/10/08 11:28:01;;;;;;;1.90;1.10;;;16.80;99.90;;;;;;5095867;28;20040;-64
2023/10/08 11:30:31;;;;;;;1.23;0.80;;;16.80;99.90;;;;;;5095610;28;20118;-64
2023/10/08 11:33:00;;;;;;;1.63;0.90;;;16.70;99.90;;;;;;5114001;28;20078;-64
2023/10/08 11:35:33;;;;;;;2.15;1.00;;;16.70;99.90;;;;;;5113597;28;20096;-64
2023/10/08 11:38:03;;;;;;;1.08;0.70;;;16.70;99.90;;;;;;5113956;28;20086;-64
2023/10/08 11:40:28;;;;;;;0.77;0.75;;;16.80;99.90;;;;;;5095356;28;20047;-64
2023/10/08 11:42:59;;;;;;;1.88;1.17;;;16.90;99.90;;;;;;5113859;28;20104;-64
2023/10/08 11:45:29;;;;;;;2.20;0.85;;;16.80;99.90;;;;;;5113749;28;20040;-64
2023/10/08 11:48:03;;;;;;;0.52;0.43;;;16.90;99.90;;;;;;5095221;28;20050;-64
2023/10/08 11:50:32;;;;;;;1.00;0.70;;;16.90;99.90;;;;;;5113829;28;20047;-64
2023/10/08 11:53:03;;;;;;;1.05;0.88;;;16.80;64.30;;;;;;5113770;28;20036;-64
2023/10/08 11:55:38;;;;;;;2.90;1.13;;;16.90;22.90;;;;;;5112213;28;20048;-64
2023/10/08 11:58:11;;;;;;;0.82;0.60;;;16.90;99.90;;;;;;5095189;28;20032;-64
2023/10/08 12:00:45;;;;;;;0.70;0.68;;;16.90;99.90;;;;;;5113661;28;20074;-64
2023/10/08 12:03:20;;;;;;;2.78;0.60;;;16.90;99.90;;;;;;5113347;28;20092;-64
2023/10/08 12:05:52;;;;;;;1.73;1.20;;;16.90;58.70;;;;;;5113131;28;20069;-64
2023/10/08 12:08:20;;;;;;;0.85;0.60;;;16.90;99.90;;;;;;5113604;28;20114;-64
2023/10/08 12:10:48;;;;;;;1.13;0.90;;;16.90;99.90;;;;;;5078201;28;20047;-65
2023/10/08 12:13:16;;;;;;;1.20;0.80;;;16.90;99.90;;;;;;5113483;28;20034;-65
2023/10/08 12:15:44;;;;;;;2.58;0.95;;;17.10;99.90;;;;;;5113036;28;20039;-66
2023/10/08 12:18:25;;;;;;;1.33;0.80;;;16.90;99.90;;;;;;5094902;28;20039;-65
2023/10/08 12:20:52;;;;;;;2.25;0.90;;;16.90;92.50;;;;;;5113740;28;20067;-65
2023/10/08 12:23:29;;;;;;;1.02;0.85;;;16.90;99.90;;;;;;5099208;28;20127;-65
2023/10/08 12:25:57;;;;;;;2.88;1.00;;;16.90;99.90;;;;;;5117635;28;20137;-65
2023/10/08 12:28:23;;;;;;;0.85;0.73;;;16.90;96.50;;;;;;5082237;28;20035;-65
2023/10/08 12:30:52;;;;;;;0.85;0.63;;;16.80;61.70;;;;;;5117524;28;20475;-65
2023/10/08 12:33:24;;;;;;;0.75;0.73;;;16.90;99.90;;;;;;5117802;28;20071;-66
2023/10/08 12:35:55;;;;;;;1.30;0.40;;;16.80;99.90;;;;;;5117160;28;20043;-66
2023/10/08 12:38:27;;;;;;;0.90;0.60;;;16.90;99.90;;;;;;5098939;28;20099;-65
2023/10/08 12:40:54;;;;;;;1.00;0.60;;;16.90;1.00;;;;;;5099038;28;20054;-66
2023/10/08 12:43:27;;;;;;;1.40;0.65;;;16.90;80.10;;;;;;5116959;28;20051;-66
2023/10/08 12:45:53;;;;;;;1.20;0.70;;;16.90;66.90;;;;;;5117218;28;20031;-66
2023/10/08 12:48:19;;;;;;;1.08;0.80;;;16.80;99.90;;;;;;5098738;28;20483;-66
2023/10/08 12:50:44;;;;;;;1.42;0.90;;;16.70;99.90;;;;;;5082010;28;20048;-66
2023/10/08 12:53:11;;;;;;;1.38;0.90;;;16.70;99.90;;;;;;5116890;28;20043;-66
2023/10/08 12:55:40;;;;;;;1.38;0.80;;;16.70;99.90;;;;;;5117060;28;20039;-66
2023/10/08 12:58:09;;;;;;;1.67;0.70;;;17.00;84.80;;;;;;5116685;28;20086;-66
2023/10/08 13:00:38;;;;;;;1.17;0.88;;;16.60;99.90;;;;;;5116619;28;20118;-70
2023/10/08 13:03:07;;;;;;;1.77;1.10;;;16.60;99.90;;;;;;5081440;28;20046;-71
2023/10/08 13:05:33;;;;;;;0.90;0.68;;;16.70;99.90;;;;;;5098229;28;20488;-68
2023/10/08 13:08:09;;;;;;;1.55;1.13;;;16.70;99.90;;;;;;5098200;28;20053;-68
2023/10/08 13:10:38;;;;;;;0.82;0.60;;;16.80;99.90;;;;;;5116813;28;20042;-66
2023/10/08 13:13:04;;;;;;;0.90;0.70;;;16.70;70.10;;;;;;5098249;28;20044;-67
2023/10/08 13:15:35;;;;;;;2.70;1.45;;;16.70;12.20;;;;;;5116365;28;20040;-67
2023/10/08 13:18:03;;;;;;;2.42;0.73;;;16.70;89.60;;;;;;5116664;28;20067;-67
2023/10/08 13:20:33;;;;;;;2.50;1.00;;;16.70;7.20;;;;;;5081159;28;20039;-67
2023/10/08 13:22:59;;;;;;;1.00;0.85;;;16.60;1.00;;;;;;5116273;28;20399;-67
2023/10/08 13:25:25;;;;;;;1.35;0.70;;;16.80;31.40;;;;;;5116341;28;20082;-67
2023/10/08 13:27:51;;;;;;;1.23;0.60;;;16.90;79.10;;;;;;5097824;28;20046;-67
2023/10/08 13:30:17;;;;;;;1.13;0.50;;;16.80;1.00;;;;;;5116469;28;20032;-68
2023/10/08 13:32:43;;;;;;;0.55;0.50;;;16.80;27.30;;;;;;5097394;28;20472;-66
2023/10/08 13:35:11;;;;;;;1.58;0.80;;;16.80;1.00;;;;;;5116123;28;20401;-66
2023/10/08 13:37:36;;;;;;;1.10;0.80;;;16.70;1.00;;;;;;5116268;28;20043;-66
2023/10/08 13:40:02;;;;;;;1.25;0.88;;;16.60;1.00;;;;;;5097666;28;20502;-66
2023/10/08 13:42:29;;;;;;;1.60;0.82;;;16.60;1.00;;;;;;5097962;28;20035;-66
2023/10/08 13:45:07;;;;;;;2.13;0.73;;;16.70;1.00;;;;;;5097475;28;20058;-66
2023/10/08 13:47:34;;;;;;;1.38;0.80;;;16.60;32.30;;;;;;5116121;28;20035;-66
2023/10/08 13:49:59;;;;;;;1.42;0.88;;;16.40;26.60;;;;;;5116036;28;20036;-66
2023/10/08 13:52:26;;;;;;;1.77;1.00;;;16.30;30.70;;;;;;5080593;28;20054;-66
2023/10/08 13:54:53;;;;;;;0.82;0.60;;;16.40;99.90;;;;;;5115912;28;20407;-66
2023/10/08 13:57:23;;;;;;;1.30;0.70;;;16.20;38.10;;;;;;5115917;28;20463;-66
2023/10/08 13:59:50;;;;;;;1.15;0.90;;;16.30;1.00;;;;;;5115853;28;20462;-66
2023/10/08 14:02:19;;;;;;;0.95;0.52;;;16.30;12.00;;;;;;5115578;28;20114;-66